createdAt,value
2019-01-25T10:12:34.867Z,24.43
2019-01-25T10:15:03.623Z,24.93
2019-01-25T10:17:34.781Z,25.47
2019-01-25T10:20:06.948Z,22.70
2019-01-25T10:22:38.639Z,22.77
2019-01-25T10:25:11.246Z,22.60
2019-01-25T10:27:42.414Z,23.30
2019-01-25T10:30:18.047Z,24.20
2019-01-25T10:32:49.255Z,24.77
2019-01-25T10:35:21.116Z,24.40
2019-01-25T10:37:53.077Z,21.77
2019-01-25T10:40:24.438Z,22.37
2019-01-25T10:42:57.271Z,22.10
2019-01-25T10:45:32.453Z,21.97
2019-01-25T10:48:03.676Z,21.63
2019-01-25T10:50:36.204Z,20.13
2019-01-25T10:53:09.139Z,18.93
2019-01-25T10:55:40.771Z,19.20
2019-01-25T10:58:12.398Z,21.80
2019-01-25T11:00:43.554Z,21.00
2019-01-25T11:03:14.762Z,20.30
2019-01-25T11:05:45.903Z,21.33
2019-01-25T11:08:17.215Z,20.37
2019-01-25T11:10:48.408Z,20.93
2019-01-25T11:13:23.066Z,21.30
2019-01-25T11:15:54.208Z,20.83
2019-01-25T11:18:27.231Z,22.73
2019-01-25T11:20:58.614Z,21.93
2019-01-25T11:23:29.732Z,21.47
2019-01-25T11:26:01.641Z,21.47
2019-01-25T11:28:43.091Z,21.53
2019-01-25T11:31:14.248Z,21.97
2019-01-25T11:34:04.361Z,22.33
2019-01-25T11:36:54.491Z,22.00
2019-01-25T11:39:49.185Z,21.73
2019-01-25T11:42:38.843Z,21.57
2019-01-25T11:45:29.755Z,21.97
2019-01-25T11:48:20.672Z,22.13
2019-01-25T11:51:11.699Z,22.37
2019-01-25T11:54:01.831Z,21.93
2019-01-25T11:56:52.242Z,20.23
2019-01-25T11:59:43.206Z,20.77
2019-01-25T12:02:34.455Z,22.77
2019-01-25T12:06:04.256Z,21.63
2019-01-25T12:08:46.855Z,22.03
2019-01-25T12:11:55.921Z,23.10
2019-01-25T12:14:45.984Z,22.30
2019-01-25T12:17:36.399Z,21.03
2019-01-25T12:21:09.522Z,22.73
2019-01-25T12:23:59.817Z,22.60
2019-01-25T12:26:49.894Z,22.30
2019-01-25T12:29:40.676Z,21.47
2019-01-25T12:32:30.741Z,23.00
2019-01-25T12:36:00.670Z,21.50
2019-01-25T12:38:50.862Z,22.13
2019-01-25T12:41:40.925Z,23.23
2019-01-25T12:44:31.070Z,23.80
2019-01-25T12:50:36.790Z,25.47
2019-01-25T12:53:27.357Z,25.63
2019-01-25T12:56:17.994Z,24.37
2019-01-25T12:59:09.639Z,23.93
2019-01-25T13:05:50.202Z,25.70
2019-01-25T13:08:32.828Z,27.80
2019-01-25T13:11:22.941Z,28.23
2019-01-25T13:14:13.057Z,25.77
2019-01-25T13:17:03.158Z,27.90
2019-01-25T13:19:53.247Z,27.17
2019-01-25T13:22:43.570Z,28.13
2019-01-25T13:25:33.667Z,28.33
2019-01-25T13:28:23.766Z,28.50
2019-01-25T13:31:13.902Z,27.50
2019-01-25T13:34:03.979Z,29.43
2019-01-25T13:36:57.238Z,29.70
2019-01-25T13:39:45.844Z,29.20
2019-01-25T13:42:35.938Z,29.70
2019-01-25T13:45:26.193Z,27.70
2019-01-25T13:48:16.452Z,30.43
2019-01-25T13:51:06.699Z,28.93
2019-01-25T13:53:56.769Z,29.57
2019-01-25T13:56:46.876Z,30.97
2019-01-25T13:59:37.002Z,28.33
2019-01-25T14:02:34.851Z,29.53
2019-01-25T14:08:34.839Z,27.70
2019-01-25T14:14:42.035Z,29.27
2019-01-25T14:17:32.802Z,27.47
2019-01-25T14:20:25.263Z,29.07
2019-01-25T14:26:44.391Z,29.73
2019-01-25T14:29:34.515Z,32.40
2019-01-25T14:32:24.580Z,30.57
2019-01-25T14:35:14.813Z,30.40
2019-01-25T14:41:34.226Z,32.40
2019-01-25T14:44:25.307Z,29.83
2019-01-25T14:47:15.332Z,29.33
2019-01-25T14:50:45.725Z,32.20
2019-01-25T14:53:35.810Z,29.77
2019-01-25T14:56:26.536Z,29.13
2019-01-25T14:59:17.790Z,30.53
2019-01-25T15:02:08.062Z,30.87
2019-01-25T15:04:58.105Z,31.67
2019-01-25T15:11:04.421Z,32.27
2019-01-25T15:14:02.097Z,31.97
2019-01-25T15:16:47.017Z,32.20
2019-01-25T15:19:56.356Z,34.50
2019-01-25T15:22:46.395Z,34.30
2019-01-25T15:25:36.703Z,32.53
2019-01-25T15:28:26.790Z,32.10
2019-01-25T15:34:32.950Z,33.73
2019-01-25T15:37:23.415Z,32.47
2019-01-25T15:43:43.713Z,47.37
2019-01-25T15:46:33.812Z,35.47
2019-01-25T15:55:31.916Z,29.63
2019-01-25T15:58:22.306Z,32.17
2019-01-25T16:01:13.129Z,29.83
2019-01-25T16:04:03.240Z,29.10
2019-01-25T16:06:53.631Z,29.00
2019-01-25T16:09:36.375Z,29.53
2019-01-25T16:12:27.541Z,30.07
2019-01-25T16:15:22.802Z,29.90
2019-01-25T16:18:12.951Z,26.67
2019-01-25T16:21:03.146Z,28.77
2019-01-25T16:23:54.090Z,28.17
2019-01-25T16:26:44.937Z,26.63
2019-01-25T16:29:34.951Z,25.10
2019-01-25T16:32:25.780Z,27.17
2019-01-25T16:35:17.252Z,25.13
2019-01-25T16:38:07.704Z,25.90
2019-01-25T16:40:57.735Z,26.77
2019-01-25T16:46:56.931Z,24.80
2019-01-25T16:49:47.013Z,25.43
2019-01-25T16:52:37.671Z,25.57
2019-01-25T16:55:27.787Z,27.37
2019-01-25T17:01:13.498Z,30.23
2019-01-25T17:04:03.525Z,26.73
2019-01-25T17:06:53.687Z,25.60
2019-01-25T17:09:36.415Z,24.83
2019-01-25T17:12:26.624Z,26.03
2019-01-25T17:18:46.118Z,25.23
2019-01-25T17:21:36.236Z,23.90
2019-01-25T17:24:26.200Z,24.67
2019-01-25T17:27:35.725Z,24.23
2019-01-25T17:33:45.039Z,23.70
2019-01-25T17:36:35.133Z,25.43
2019-01-25T17:39:25.170Z,23.70
2019-01-25T17:42:15.561Z,24.90
2019-01-25T17:45:06.696Z,25.67
2019-01-25T17:47:56.974Z,23.67
2019-01-25T17:50:47.092Z,25.03
2019-01-25T17:53:37.145Z,25.03
2019-01-25T17:56:27.230Z,24.30
2019-01-25T17:59:17.346Z,23.77
2019-01-25T18:02:09.051Z,24.30
2019-01-25T18:05:18.281Z,24.53
2019-01-25T18:08:01.033Z,25.10
2019-01-25T18:11:10.268Z,24.33
2019-01-25T18:14:00.356Z,24.57
2019-01-25T18:16:50.377Z,25.53
2019-01-25T18:22:53.650Z,23.43
2019-01-25T18:26:07.698Z,24.93
2019-01-25T18:29:11.216Z,26.97
2019-01-25T18:35:32.509Z,25.47
2019-01-25T18:41:52.498Z,25.43
2019-01-25T18:44:42.648Z,25.80
2019-01-25T18:47:32.664Z,24.53
2019-01-25T18:50:22.845Z,24.77
2019-01-25T18:53:13.015Z,26.50
2019-01-25T18:56:03.135Z,24.60
2019-01-25T18:58:53.218Z,25.53
2019-01-25T19:01:44.021Z,25.60
2019-01-25T19:04:34.625Z,26.67
2019-01-25T19:07:26.642Z,27.03
2019-01-25T19:10:11.320Z,33.27
2019-01-25T19:13:00.788Z,25.77
2019-01-25T19:15:50.904Z,26.87
2019-01-25T19:18:40.935Z,25.80
2019-01-25T19:21:31.565Z,28.57
2019-01-25T19:24:21.605Z,28.03
2019-01-25T19:27:12.551Z,28.47
2019-01-25T19:30:02.518Z,27.50
2019-01-25T19:33:11.748Z,30.43
2019-01-25T19:36:02.584Z,33.50
2019-01-25T19:38:52.532Z,29.87
2019-01-25T19:41:43.155Z,30.10
2019-01-25T19:44:25.547Z,31.73
2019-01-25T19:47:15.651Z,34.43
2019-01-25T19:50:45.364Z,28.90
2019-01-25T19:53:36.430Z,28.73
2019-01-25T19:56:26.524Z,29.83
2019-01-25T19:59:16.614Z,38.17
2019-01-25T20:02:06.841Z,30.83
2019-01-25T20:04:57.678Z,38.43
2019-01-25T20:07:47.693Z,29.47
2019-01-25T20:10:38.183Z,29.20
2019-01-25T20:13:28.339Z,27.93
2019-01-25T20:16:37.500Z,29.53
2019-01-25T20:19:27.867Z,29.97
2019-01-25T20:22:17.879Z,30.17
2019-01-25T20:25:09.084Z,29.40
2019-01-25T20:28:00.396Z,31.37
2019-01-25T20:30:50.484Z,30.63
2019-01-25T20:33:42.361Z,31.63
2019-01-25T20:36:33.167Z,32.13
2019-01-25T20:39:24.363Z,31.97
2019-01-25T20:45:32.868Z,30.03
2019-01-25T20:48:24.130Z,28.47
2019-01-25T20:54:30.590Z,30.17
2019-01-25T20:57:20.629Z,29.53
2019-01-25T21:00:14.477Z,29.30
2019-01-25T21:06:20.585Z,30.43
2019-01-25T21:09:12.091Z,31.33
2019-01-25T21:12:02.306Z,31.67
2019-01-25T21:15:11.561Z,32.20
2019-01-25T21:18:01.717Z,30.57
2019-01-25T21:20:51.736Z,32.67
2019-01-25T21:23:44.835Z,29.77
2019-01-25T21:26:34.969Z,30.63
2019-01-25T21:29:25.048Z,33.17
2019-01-25T21:32:16.133Z,30.73
2019-01-25T21:35:07.643Z,31.87
2019-01-25T21:37:58.232Z,31.13
2019-01-25T21:40:49.329Z,29.93
2019-01-25T21:46:39.981Z,32.20
2019-01-25T21:49:27.423Z,29.73
2019-01-25T21:52:17.820Z,31.17
2019-01-25T21:55:48.135Z,31.67
2019-01-25T21:58:39.399Z,30.23
2019-01-25T22:02:10.717Z,29.73
2019-01-25T22:08:23.587Z,30.50
2019-01-25T22:15:01.455Z,30.37
2019-01-25T22:20:58.471Z,30.43
2019-01-25T22:24:29.927Z,31.27
2019-01-25T22:27:59.629Z,29.40
2019-01-25T22:31:29.349Z,30.17
2019-01-25T22:34:20.431Z,31.13
2019-01-25T22:37:10.660Z,28.77
2019-01-25T22:40:24.288Z,30.27
2019-01-25T22:43:08.778Z,31.23
2019-01-25T22:46:39.006Z,31.17
2019-01-25T22:50:10.948Z,31.90
2019-01-25T22:53:25.083Z,30.33
2019-01-25T23:00:25.173Z,30.73
2019-01-25T23:03:55.668Z,30.73
2019-01-25T23:10:23.585Z,29.63
2019-01-25T23:13:53.612Z,30.00
2019-01-25T23:16:50.889Z,29.97
2019-01-25T23:20:00.810Z,29.53
2019-01-25T23:22:52.009Z,29.33
2019-01-25T23:25:43.143Z,27.13
2019-01-25T23:32:04.926Z,29.43
2019-01-25T23:41:24.363Z,26.77
2019-01-25T23:44:07.113Z,26.33
2019-01-25T23:50:14.791Z,27.30
2019-01-25T23:53:05.777Z,26.70
2019-01-25T23:55:56.725Z,28.70
2019-01-25T23:58:48.517Z,28.77
